Time;durP1;ratioP1;P1;durP2;ratioP2;P2;SDS_P1;SDS_P2;PMS_P1;PMS_P2;Temp;Humidity;BMP_temperature;BMP_pressure;BME280_temperature;BME280_humidity;BME280_pressure;Samples;Min_cycle;Max_cycle;Signal;HPM_P1;HPM_P2
2021/11/27 00:00:58;;;;;;;9.70;3.25;;;22.50;71.60;;;;;;5086051;28;20495;-76
2021/11/27 00:03:26;;;;;;;15.98;3.65;;;22.50;71.60;;;;;;5086990;28;20531;-76
2021/11/27 00:05:55;;;;;;;16.55;4.80;;;22.50;71.60;;;;;;5084569;28;20024;-74
2021/11/27 00:08:22;;;;;;;12.68;4.28;;;22.50;71.70;;;;;;5085169;28;20061;-74
2021/11/27 00:10:52;;;;;;;10.32;3.17;;;22.50;71.80;;;;;;5086040;28;20683;-74
2021/11/27 00:13:20;;;;;;;9.88;2.97;;;22.50;71.80;;;;;;5085305;28;20058;-75
2021/11/27 00:15:48;;;;;;;10.10;3.63;;;22.40;71.80;;;;;;5085745;28;20020;-75
2021/11/27 00:18:16;;;;;;;14.93;3.70;;;22.50;71.80;;;;;;5083327;28;20438;-75
2021/11/27 00:20:56;;;;;;;14.30;4.72;;;22.50;71.80;;;;;;5086015;28;20012;-75
2021/11/27 00:23:24;;;;;;;14.00;4.85;;;22.40;71.80;;;;;;5083789;28;20008;-75
2021/11/27 00:25:53;;;;;;;10.52;3.08;;;22.50;71.80;;;;;;5085410;28;20376;-76
2021/11/27 00:28:22;;;;;;;13.02;3.50;;;22.40;71.60;;;;;;5088303;28;20028;-75
2021/11/27 00:30:49;;;;;;;12.25;3.10;;;22.40;71.60;;;;;;5087146;28;20115;-74
2021/11/27 00:33:16;;;;;;;11.48;3.60;;;22.40;71.60;;;;;;5089526;28;20543;-75
2021/11/27 00:35:43;;;;;;;11.35;3.17;;;22.40;71.50;;;;;;5088453;28;20028;-75
2021/11/27 00:38:10;;;;;;;10.45;3.35;;;22.40;71.60;;;;;;5088322;28;20017;-75
2021/11/27 00:40:39;;;;;;;9.07;3.00;;;22.40;71.40;;;;;;5088796;28;20569;-75
2021/11/27 00:43:08;;;;;;;13.85;3.13;;;22.40;71.40;;;;;;5088998;28;20069;-74
2021/11/27 00:45:36;;;;;;;10.70;2.60;;;22.40;71.30;;;;;;5089516;28;20012;-75
2021/11/27 00:48:03;;;;;;;17.38;5.07;;;22.40;71.20;;;;;;5087643;28;20031;-75
2021/11/27 00:50:35;;;;;;;12.23;3.75;;;22.40;71.10;;;;;;5088215;28;20508;-75
2021/11/27 00:53:05;;;;;;;13.07;3.38;;;22.30;70.90;;;;;;5089180;28;20024;-75
2021/11/27 00:55:34;;;;;;;15.70;3.95;;;22.30;70.70;;;;;;5089252;28;20043;-75
2021/11/27 00:58:01;;;;;;;12.80;3.45;;;22.30;70.70;;;;;;5088592;28;20079;-75
2021/11/27 01:00:33;;;;;;;18.38;4.93;;;22.30;70.50;;;;;;5086818;28;20024;-75
2021/11/27 01:03:02;;;;;;;14.48;3.13;;;22.30;70.50;;;;;;5088650;28;20016;-75
2021/11/27 01:05:30;;;;;;;11.73;3.15;;;22.30;70.60;;;;;;5086725;28;20048;-76
2021/11/27 01:07:57;;;;;;;12.80;3.55;;;22.30;70.70;;;;;;5088142;28;20016;-76
2021/11/27 01:10:28;;;;;;;11.38;2.58;;;22.30;70.70;;;;;;5085744;28;20020;-74
2021/11/27 01:12:54;;;;;;;17.98;3.83;;;22.20;70.80;;;;;;5088667;28;20019;-74
2021/11/27 01:15:25;;;;;;;18.77;4.40;;;22.20;70.90;;;;;;5087236;28;20032;-74
2021/11/27 01:17:52;;;;;;;10.77;3.47;;;22.20;71.00;;;;;;5086138;28;20055;-73
2021/11/27 01:20:23;;;;;;;12.05;3.13;;;22.20;71.00;;;;;;5090204;28;20023;-74
2021/11/27 01:22:50;;;;;;;15.00;3.53;;;22.20;70.90;;;;;;5087841;28;20008;-75
2021/11/27 01:25:20;;;;;;;15.98;3.00;;;22.10;70.70;;;;;;5086954;28;20348;-76
2021/11/27 01:27:48;;;;;;;18.27;3.60;;;22.10;70.60;;;;;;5053349;28;20115;-76
2021/11/27 01:30:15;;;;;;;11.23;2.75;;;22.10;70.60;;;;;;5089509;28;20073;-76
2021/11/27 01:32:42;;;;;;;13.27;3.67;;;22.10;70.60;;;;;;5089093;28;20019;-77
2021/11/27 01:35:10;;;;;;;7.53;2.75;;;22.10;70.60;;;;;;5086007;28;20051;-77
2021/11/27 01:37:38;;;;;;;10.75;3.72;;;22.10;70.70;;;;;;5085628;28;20023;-77
2021/11/27 01:40:09;;;;;;;15.13;3.70;;;22.10;70.80;;;;;;5086996;28;20365;-77
2021/11/27 01:42:35;;;;;;;8.13;2.97;;;22.10;70.80;;;;;;5087095;28;20011;-77
2021/11/27 01:45:03;;;;;;;12.65;3.08;;;22.10;70.80;;;;;;5087803;28;20035;-77
2021/11/27 01:47:29;;;;;;;14.13;3.45;;;22.00;70.70;;;;;;5087912;28;20573;-76
2021/11/27 01:49:56;;;;;;;12.10;3.33;;;22.00;70.70;;;;;;5086574;28;20023;-77
2021/11/27 01:52:23;;;;;;;12.93;2.83;;;22.10;70.70;;;;;;5086831;28;20077;-77
2021/11/27 01:54:49;;;;;;;19.50;5.13;;;22.00;70.50;;;;;;5089446;28;20031;-76
2021/11/27 01:57:16;;;;;;;11.35;3.05;;;22.00;70.50;;;;;;5084804;28;20020;-78
2021/11/27 01:59:44;;;;;;;10.90;3.53;;;22.00;70.40;;;;;;5086780;28;20035;-76
2021/11/27 02:02:13;;;;;;;10.60;2.83;;;22.00;70.40;;;;;;5067422;28;20482;-78
2021/11/27 02:04:41;;;;;;;8.52;2.85;;;22.00;70.40;;;;;;5086474;28;20020;-77
2021/11/27 02:07:08;;;;;;;9.05;2.80;;;22.00;70.40;;;;;;5086924;28;20016;-75
2021/11/27 02:09:37;;;;;;;7.80;2.83;;;22.00;70.30;;;;;;5088433;28;20039;-75
2021/11/27 02:12:07;;;;;;;16.58;3.42;;;22.00;70.30;;;;;;5086050;28;20016;-76
2021/11/27 02:14:33;;;;;;;10.15;3.45;;;22.00;70.40;;;;;;5087429;28;20031;-76
2021/11/27 02:17:00;;;;;;;12.90;3.83;;;22.00;70.40;;;;;;5087497;28;20100;-77
2021/11/27 02:19:27;;;;;;;11.43;2.72;;;22.00;70.40;;;;;;5087202;28;20020;-76
2021/11/27 02:21:53;;;;;;;10.43;2.60;;;22.00;70.40;;;;;;5088255;28;20516;-75
2021/11/27 02:24:21;;;;;;;7.20;3.00;;;22.00;70.40;;;;;;5086869;28;20023;-76
2021/11/27 02:26:49;;;;;;;12.50;2.75;;;22.00;70.40;;;;;;5088156;28;20646;-76
2021/11/27 02:29:23;;;;;;;8.32;2.65;;;22.00;70.30;;;;;;5088088;28;20047;-76
2021/11/27 02:31:50;;;;;;;15.73;3.42;;;21.90;70.20;;;;;;5084673;28;20034;-77
2021/11/27 02:34:17;;;;;;;13.50;2.60;;;21.90;70.20;;;;;;5087227;28;20035;-76
2021/11/27 02:36:47;;;;;;;11.05;2.50;;;21.90;70.10;;;;;;5085623;28;20012;-76
2021/11/27 02:39:15;;;;;;;8.45;2.58;;;21.80;70.00;;;;;;5086654;28;20027;-77
2021/11/27 02:41:41;;;;;;;11.07;2.65;;;21.80;69.90;;;;;;5086440;28;20043;-76
2021/11/27 02:44:09;;;;;;;9.25;2.78;;;21.80;69.90;;;;;;5087679;28;20475;-77
2021/11/27 02:46:39;;;;;;;18.30;4.60;;;21.80;69.90;;;;;;5087829;28;20014;-76
2021/11/27 02:49:07;;;;;;;10.70;2.75;;;21.80;69.90;;;;;;5086967;28;20497;-76
2021/11/27 02:51:34;;;;;;;12.85;3.08;;;21.80;69.90;;;;;;5085133;28;20044;-76
2021/11/27 02:54:01;;;;;;;10.77;2.30;;;21.80;70.00;;;;;;5086197;28;20081;-77
2021/11/27 02:56:28;;;;;;;11.20;3.38;;;21.80;70.80;;;;;;5088562;28;20023;-77
2021/11/27 02:58:54;;;;;;;9.88;2.97;;;21.70;70.10;;;;;;5085774;28;20052;-77
2021/11/27 03:01:22;;;;;;;14.20;3.70;;;21.70;70.20;;;;;;5086126;28;20019;-74
2021/11/27 03:03:48;;;;;;;20.90;12.48;;;21.70;70.30;;;;;;5086317;28;20391;-76
2021/11/27 03:06:15;;;;;;;22.23;11.70;;;21.70;70.40;;;;;;5086648;28;20009;-76
2021/11/27 03:08:42;;;;;;;16.33;9.50;;;21.70;70.40;;;;;;5086276;28;20073;-77
2021/11/27 03:11:08;;;;;;;12.23;6.22;;;21.70;71.10;;;;;;5084602;28;20130;-76
2021/11/27 03:13:39;;;;;;;13.90;4.85;;;21.70;70.40;;;;;;5088337;28;20064;-76
2021/11/27 03:16:05;;;;;;;10.15;4.20;;;21.70;70.40;;;;;;5084876;28;20374;-76
2021/11/27 03:18:32;;;;;;;8.48;3.40;;;21.70;70.50;;;;;;5086183;28;20048;-76
2021/11/27 03:20:58;;;;;;;11.77;3.50;;;21.60;70.50;;;;;;5087344;28;20023;-76
2021/11/27 03:23:26;;;;;;;10.23;2.67;;;21.60;70.50;;;;;;5085154;28;20017;-76
2021/11/27 03:25:53;;;;;;;7.38;2.38;;;21.60;70.50;;;;;;5085699;28;20494;-76
2021/11/27 03:28:20;;;;;;;12.57;3.22;;;21.60;70.50;;;;;;5085442;28;20103;-76
2021/11/27 03:30:46;;;;;;;14.20;4.68;;;21.60;70.50;;;;;;5087892;28;20016;-77
2021/11/27 03:33:13;;;;;;;7.45;2.53;;;21.60;70.40;;;;;;5086377;28;20020;-77
2021/11/27 03:35:40;;;;;;;9.82;3.20;;;21.60;70.40;;;;;;5087120;28;20016;-76
2021/11/27 03:38:08;;;;;;;12.60;3.65;;;21.60;70.30;;;;;;5067053;28;20043;-76
2021/11/27 03:40:38;;;;;;;11.45;2.03;;;21.60;70.50;;;;;;5086059;28;20012;-76
2021/11/27 03:43:05;;;;;;;7.72;2.65;;;21.50;70.50;;;;;;5085695;28;20024;-76
2021/11/27 03:45:31;;;;;;;10.63;3.05;;;21.50;70.60;;;;;;5086946;28;20537;-77
2021/11/27 03:48:06;;;;;;;11.48;3.60;;;21.60;70.80;;;;;;5086076;28;20016;-76
2021/11/27 03:50:34;;;;;;;;;;;21.50;70.90;;;;;;5085889;28;20080;-76
2021/11/27 03:53:02;;;;;;;8.65;2.03;;;21.50;71.00;;;;;;5090208;28;19984;-76
2021/11/27 03:55:29;;;;;;;7.57;2.28;;;21.50;71.40;;;;;;5063902;28;20501;-77
2021/11/27 03:57:55;;;;;;;8.68;2.45;;;21.50;71.00;;;;;;5076972;28;20378;-76
2021/11/27 04:00:22;;;;;;;12.80;5.03;;;21.50;71.10;;;;;;5096582;28;20054;-75
2021/11/27 04:02:49;;;;;;;13.75;7.43;;;21.50;71.10;;;;;;5097501;28;20056;-75
2021/11/27 04:05:16;;;;;;;14.35;6.80;;;21.50;71.00;;;;;;5100199;28;20369;-76
2021/11/27 04:07:43;;;;;;;12.18;5.25;;;21.50;71.10;;;;;;5076570;28;20020;-76
2021/11/27 04:10:09;;;;;;;15.35;5.05;;;21.50;71.00;;;;;;5095159;28;20020;-76
2021/11/27 04:12:36;;;;;;;11.73;3.63;;;21.50;71.00;;;;;;5097231;28;20023;-78
2021/11/27 04:15:04;;;;;;;6.30;3.28;;;21.50;71.10;;;;;;5101219;28;20035;-76
2021/11/27 04:17:31;;;;;;;10.63;3.20;;;21.50;71.10;;;;;;5098871;28;20559;-75
2021/11/27 04:19:57;;;;;;;7.28;3.30;;;21.50;71.20;;;;;;5097270;28;20027;-76
2021/11/27 04:22:24;;;;;;;7.57;2.25;;;21.50;71.10;;;;;;5100565;28;20026;-75
2021/11/27 04:24:50;;;;;;;7.38;1.90;;;21.50;70.90;;;;;;5097581;28;20401;-76
2021/11/27 04:27:17;;;;;;;10.13;2.22;;;21.50;70.90;;;;;;5100519;28;20111;-72
2021/11/27 04:29:43;;;;;;;12.93;3.65;;;21.50;70.90;;;;;;5096964;28;20071;-71
2021/11/27 04:32:11;;;;;;;15.15;9.70;;;21.50;70.90;;;;;;5100019;28;20023;-76
2021/11/27 04:34:37;;;;;;;15.43;8.38;;;21.40;70.80;;;;;;5096399;28;20064;-75
2021/11/27 04:37:04;;;;;;;10.05;6.57;;;21.50;70.90;;;;;;5096868;28;20020;-74
2021/11/27 04:39:31;;;;;;;7.07;4.35;;;21.50;70.90;;;;;;5102903;28;20015;-77
2021/11/27 04:41:57;;;;;;;6.57;4.05;;;21.50;71.00;;;;;;5098008;28;20035;-76
2021/11/27 04:44:25;;;;;;;6.57;3.42;;;21.40;71.00;;;;;;5094222;28;20016;-76
2021/11/27 04:46:53;;;;;;;10.70;3.22;;;21.50;71.20;;;;;;5095672;28;20032;-77
2021/11/27 04:49:21;;;;;;;10.90;2.80;;;21.40;71.20;;;;;;5096599;28;20021;-78
2021/11/27 04:51:48;;;;;;;6.82;2.40;;;21.40;71.40;;;;;;5082465;28;20020;-76
2021/11/27 04:54:15;;;;;;;12.10;3.63;;;21.40;71.60;;;;;;5075419;28;20062;-77
2021/11/27 04:56:42;;;;;;;5.95;1.92;;;21.40;71.60;;;;;;5094389;28;20020;-75
2021/11/27 04:59:09;;;;;;;9.25;2.35;;;21.50;71.70;;;;;;5095073;28;20046;-78
2021/11/27 05:01:36;;;;;;;7.80;2.55;;;21.40;71.60;;;;;;5102417;28;20028;-73
2021/11/27 05:04:03;;;;;;;5.90;2.10;;;21.40;71.60;;;;;;5093800;28;20016;-80
2021/11/27 05:06:31;;;;;;;8.60;2.63;;;21.50;71.60;;;;;;5102880;28;20034;-76
2021/11/27 05:08:58;;;;;;;8.52;2.30;;;21.50;71.60;;;;;;5099088;28;20024;-77
2021/11/27 05:11:24;;;;;;;7.22;2.15;;;21.50;71.50;;;;;;5099723;28;20438;-75
2021/11/27 05:13:51;;;;;;;8.82;3.10;;;21.50;71.50;;;;;;5095342;28;20024;-76
2021/11/27 05:16:18;;;;;;;11.43;3.55;;;21.40;71.40;;;;;;5100155;28;20685;-81
2021/11/27 05:18:45;;;;;;;7.20;2.67;;;21.50;71.60;;;;;;5098600;28;20072;-79
2021/11/27 05:21:11;;;;;;;7.15;2.20;;;21.50;71.50;;;;;;5081381;28;20034;-77
2021/11/27 05:23:44;;;;;;;8.75;2.00;;;21.50;71.40;;;;;;5085685;28;20022;-77
2021/11/27 05:26:15;;;;;;;8.63;2.13;;;21.50;71.50;;;;;;5057930;28;20115;-77
2021/11/27 05:28:47;;;;;;;15.48;2.65;;;21.50;71.40;;;;;;5086405;28;20073;-78
2021/11/27 05:31:39;;;;;;;7.32;2.65;;;21.60;71.60;;;;;;5084370;28;20044;-77
2021/11/27 05:34:35;;;;;;;7.43;2.65;;;21.60;71.40;;;;;;5084045;28;20036;-77
2021/11/27 05:37:31;;;;;;;6.63;2.40;;;21.60;71.40;;;;;;5086168;28;20047;-75
2021/11/27 05:40:03;;;;;;;7.20;2.13;;;21.70;71.40;;;;;;5083761;28;20032;-76
2021/11/27 05:42:37;;;;;;;8.95;2.13;;;21.70;71.30;;;;;;5084517;28;20475;-76
2021/11/27 05:45:07;;;;;;;8.68;2.20;;;21.80;71.20;;;;;;5087372;28;20028;-77
2021/11/27 05:47:35;;;;;;;9.00;2.53;;;21.80;71.00;;;;;;5084594;28;20165;-76
2021/11/27 05:50:02;;;;;;;15.75;11.88;;;21.80;70.80;;;;;;5083180;28;20036;-75
2021/11/27 05:52:31;;;;;;;24.33;19.58;;;21.80;70.70;;;;;;5082246;28;20044;-75
2021/11/27 05:54:58;;;;;;;20.25;18.23;;;21.90;70.70;;;;;;5082981;28;20036;-73
2021/11/27 05:57:28;;;;;;;16.90;13.50;;;21.90;70.70;;;;;;5089893;28;20052;-72
2021/11/27 05:59:57;;;;;;;12.57;10.38;;;22.00;70.70;;;;;;5082082;28;20032;-73
2021/11/27 06:02:28;;;;;;;17.92;9.23;;;22.00;70.70;;;;;;5086845;28;20055;-73
2021/11/27 06:04:56;;;;;;;19.38;7.47;;;22.00;70.60;;;;;;5084322;28;20028;-72
2021/11/27 06:07:30;;;;;;;28.90;5.45;;;22.10;70.40;;;;;;5062249;28;20032;-73
2021/11/27 06:10:14;;;;;;;26.30;6.47;;;22.10;70.20;;;;;;5084157;28;20023;-73
2021/11/27 06:12:44;;;;;;;15.43;4.00;;;22.10;70.00;;;;;;5080832;28;20115;-74
2021/11/27 06:15:12;;;;;;;18.25;3.70;;;22.10;69.80;;;;;;5080759;28;20044;-73
2021/11/27 06:17:39;;;;;;;11.95;3.92;;;22.20;69.80;;;;;;5080266;28;20033;-75
2021/11/27 06:20:07;;;;;;;11.55;3.60;;;22.20;69.80;;;;;;5080605;28;20115;-72
2021/11/27 06:22:33;;;;;;;16.02;5.68;;;22.20;69.80;;;;;;5084063;28;20025;-73
2021/11/27 06:25:00;;;;;;;17.20;9.05;;;22.30;69.80;;;;;;5081884;28;20044;-74
2021/11/27 06:27:26;;;;;;;21.33;12.52;;;22.30;69.80;;;;;;5082306;28;20023;-72
2021/11/27 06:29:53;;;;;;;20.77;10.52;;;22.30;69.80;;;;;;5082732;28;20618;-72
2021/11/27 06:32:23;;;;;;;9.10;6.18;;;22.30;69.70;;;;;;5085493;28;20034;-72
2021/11/27 06:34:51;;;;;;;9.75;6.88;;;22.40;69.70;;;;;;5081462;28;20489;-72
2021/11/27 06:37:20;;;;;;;22.35;10.85;;;22.40;69.70;;;;;;5086002;28;20021;-73
2021/11/27 06:39:46;;;;;;;20.23;13.25;;;22.40;69.60;;;;;;5081832;28;20027;-73
2021/11/27 06:42:13;;;;;;;19.17;13.15;;;22.50;69.70;;;;;;5085794;28;20020;-72
2021/11/27 06:44:46;;;;;;;18.15;9.20;;;22.50;69.60;;;;;;5087365;28;20024;-73
2021/11/27 06:47:15;;;;;;;13.95;9.18;;;22.60;69.50;;;;;;5085190;28;20494;-72
2021/11/27 06:49:42;;;;;;;15.07;7.47;;;22.60;69.30;;;;;;5085468;28;20024;-73
2021/11/27 06:52:08;;;;;;;12.50;7.20;;;22.60;69.20;;;;;;5084460;28;20025;-73
2021/11/27 06:54:35;;;;;;;12.85;6.57;;;22.70;69.20;;;;;;5085487;28;20032;-73
2021/11/27 06:57:02;;;;;;;12.02;9.68;;;22.70;69.20;;;;;;5084779;28;20391;-73
2021/11/27 06:59:28;;;;;;;19.92;12.05;;;22.80;69.10;;;;;;5086594;28;20028;-73
2021/11/27 07:01:55;;;;;;;23.55;10.52;;;22.80;69.10;;;;;;5086439;28;20042;-77
2021/11/27 07:04:22;;;;;;;17.30;9.30;;;22.80;68.90;;;;;;5085107;28;20014;-73
2021/11/27 07:06:49;;;;;;;15.65;8.82;;;22.80;68.70;;;;;;5087044;28;20493;-79
2021/11/27 07:09:16;;;;;;;11.75;6.97;;;22.80;68.80;;;;;;5086892;28;20080;-88
2021/11/27 07:11:44;;;;;;;11.15;5.43;;;22.90;69.00;;;;;;5088491;28;20020;-90
2021/11/27 07:14:11;;;;;;;9.27;4.60;;;22.90;68.70;;;;;;5087643;28;20039;-89
2021/11/27 07:16:37;;;;;;;8.60;4.05;;;22.90;68.60;;;;;;5088379;28;20021;-84
2021/11/27 07:19:04;;;;;;;9.27;4.30;;;22.90;69.00;;;;;;5086371;28;20050;-86
2021/11/27 07:21:31;;;;;;;13.82;3.95;;;23.00;68.20;;;;;;5088130;28;20024;-86
2021/11/27 07:23:57;;;;;;;8.75;3.50;;;23.00;68.60;;;;;;5086597;28;20058;-84
2021/11/27 07:26:24;;;;;;;5.45;2.85;;;23.00;68.20;;;;;;5089852;28;20020;-87
2021/11/27 07:28:52;;;;;;;9.45;2.80;;;23.10;67.90;;;;;;5088326;28;20616;-88
2021/11/27 07:31:19;;;;;;;6.55;2.50;;;23.10;68.10;;;;;;5090243;28;20088;-89
2021/11/27 07:33:46;;;;;;;7.93;2.03;;;23.10;68.80;;;;;;5090044;28;21600;-87
2021/11/27 07:36:12;;;;;;;9.25;2.83;;;23.20;68.60;;;;;;5090161;28;20031;-90
2021/11/27 07:38:39;;;;;;;6.65;2.13;;;23.10;68.10;;;;;;5087226;28;20016;-75
2021/11/27 07:41:06;;;;;;;5.97;2.30;;;23.20;67.60;;;;;;5087048;28;20027;-82
2021/11/27 07:43:33;;;;;;;7.95;2.40;;;23.20;67.20;;;;;;5089542;28;20024;-85
2021/11/27 07:46:01;;;;;;;9.18;1.92;;;23.10;66.90;;;;;;5089010;28;20069;-89
2021/11/27 07:48:31;;;;;;;8.60;2.63;;;23.20;66.80;;;;;;5089300;28;20106;-85
2021/11/27 07:51:04;;;;;;;7.15;2.15;;;23.20;66.40;;;;;;5090330;28;20016;-78
2021/11/27 07:53:30;;;;;;;8.85;2.05;;;23.20;66.80;;;;;;5087973;28;20027;-83
2021/11/27 07:55:57;;;;;;;9.73;2.13;;;23.20;65.50;;;;;;5090133;28;20024;-87
2021/11/27 07:58:23;;;;;;;15.25;3.95;;;23.20;65.30;;;;;;5089583;28;20024;-86
2021/11/27 08:00:50;;;;;;;9.35;3.45;;;23.20;65.20;;;;;;5088862;28;20024;-76
2021/11/27 08:03:16;;;;;;;12.23;2.28;;;23.10;65.20;;;;;;5088083;28;20028;-87
2021/11/27 08:05:43;;;;;;;8.40;2.25;;;23.10;65.40;;;;;;5088721;28;20035;-87
2021/11/27 08:08:09;;;;;;;10.43;2.05;;;23.10;65.40;;;;;;5086191;28;20024;-88
2021/11/27 08:10:36;;;;;;;13.32;2.78;;;23.10;65.40;;;;;;5087463;28;20405;-88
2021/11/27 08:13:02;;;;;;;8.30;3.35;;;23.10;65.50;;;;;;5090861;28;20028;-83
2021/11/27 08:15:29;;;;;;;11.80;2.50;;;23.10;65.60;;;;;;5086611;28;20499;-85
2021/11/27 08:17:55;;;;;;;6.82;1.98;;;23.10;65.70;;;;;;5088028;28;20493;-87
2021/11/27 08:20:22;;;;;;;9.52;2.42;;;23.10;65.70;;;;;;5088795;28;20391;-88
2021/11/27 08:22:49;;;;;;;9.73;3.40;;;23.10;65.80;;;;;;5088776;28;20066;-90
2021/11/27 08:25:15;;;;;;;10.68;3.22;;;23.10;65.80;;;;;;5088709;28;20572;-86
2021/11/27 08:27:42;;;;;;;6.43;2.75;;;23.10;65.70;;;;;;5088255;28;20107;-86
2021/11/27 08:30:10;;;;;;;10.57;2.78;;;23.20;65.60;;;;;;5089792;28;20028;-85
2021/11/27 08:32:37;;;;;;;5.13;2.28;;;23.20;65.40;;;;;;5088510;28;20013;-87
2021/11/27 08:35:05;;;;;;;6.10;1.98;;;23.30;65.10;;;;;;5088633;28;20042;-89
2021/11/27 08:37:32;;;;;;;10.15;3.20;;;23.40;65.10;;;;;;5090047;28;20519;-86
2021/11/27 08:40:00;;;;;;;7.82;2.90;;;23.50;65.00;;;;;;5088474;28;20099;-86
2021/11/27 08:42:27;;;;;;;9.18;2.58;;;23.50;64.70;;;;;;5089425;28;20415;-81
2021/11/27 08:44:54;;;;;;;8.23;2.22;;;23.60;64.60;;;;;;5087844;28;20028;-86
2021/11/27 08:47:21;;;;;;;11.90;3.15;;;23.70;64.60;;;;;;5088327;28;20012;-84
2021/11/27 08:49:48;;;;;;;6.93;2.30;;;23.80;64.00;;;;;;5086596;28;20008;-82
2021/11/27 08:52:15;;;;;;;7.15;2.30;;;23.80;63.40;;;;;;5091072;28;20028;-81
2021/11/27 08:54:41;;;;;;;7.63;2.35;;;23.90;62.90;;;;;;5089625;28;20482;-85
2021/11/27 08:57:08;;;;;;;8.20;2.78;;;23.90;62.40;;;;;;5089830;28;20013;-82
2021/11/27 08:59:36;;;;;;;6.43;1.92;;;23.90;62.00;;;;;;5091345;28;20024;-84
2021/11/27 09:02:04;;;;;;;5.85;2.15;;;23.90;61.70;;;;;;5089647;28;20035;-83
2021/11/27 09:04:31;;;;;;;8.63;3.35;;;24.00;61.80;;;;;;5090527;28;20024;-84
2021/11/27 09:06:57;;;;;;;11.13;2.33;;;24.00;61.70;;;;;;5089322;28;20058;-83
2021/11/27 09:09:24;;;;;;;7.60;2.83;;;24.00;61.40;;;;;;5091085;28;20375;-84
2021/11/27 09:11:51;;;;;;;6.03;2.50;;;24.00;61.40;;;;;;5088055;28;20402;-82
2021/11/27 09:14:18;;;;;;;8.60;1.83;;;24.10;61.30;;;;;;5088334;28;20115;-81
2021/11/27 09:16:45;;;;;;;9.00;2.42;;;24.10;61.10;;;;;;5090118;28;20152;-82
2021/11/27 09:19:12;;;;;;;5.70;1.92;;;24.10;60.80;;;;;;5088239;28;20036;-83
2021/11/27 09:21:38;;;;;;;5.53;1.90;;;24.20;60.60;;;;;;5090078;28;20103;-83
2021/11/27 09:24:05;;;;;;;11.23;2.70;;;24.20;60.60;;;;;;5089935;28;20432;-81
2021/11/27 09:26:34;;;;;;;9.35;2.65;;;24.30;60.70;;;;;;5088684;28;20023;-74
2021/11/27 09:29:03;;;;;;;5.10;2.60;;;24.30;60.10;;;;;;5088736;28;20028;-73
2021/11/27 09:31:30;;;;;;;5.78;2.72;;;24.40;59.90;;;;;;5094833;28;20406;-73
2021/11/27 09:33:58;;;;;;;34.03;25.95;;;24.50;59.80;;;;;;5096491;28;20028;-72
2021/11/27 09:36:26;;;;;;;14.02;3.95;;;24.50;59.20;;;;;;5093254;28;20047;-72
2021/11/27 09:38:53;;;;;;;7.43;2.65;;;24.50;58.00;;;;;;5096704;28;20035;-73
2021/11/27 09:41:41;;;;;;;7.05;2.47;;;24.50;57.80;;;;;;5098159;28;20411;-72
2021/11/27 09:44:20;;;;;;;7.65;1.95;;;24.40;57.80;;;;;;5099858;28;20031;-72
2021/11/27 09:46:52;;;;;;;16.33;9.48;;;24.40;59.20;;;;;;5067926;28;20112;-75
2021/11/27 09:49:22;;;;;;;8.13;4.50;;;24.40;60.00;;;;;;5093132;28;20065;-74
2021/11/27 09:51:54;;;;;;;8.90;3.45;;;24.40;60.40;;;;;;5096182;28;20024;-75
2021/11/27 09:54:33;;;;;;;7.30;2.22;;;24.50;60.60;;;;;;5096728;28;20563;-75
2021/11/27 09:57:13;;;;;;;6.65;2.30;;;24.60;60.40;;;;;;5096003;28;20024;-73
2021/11/27 09:59:52;;;;;;;10.07;2.55;;;24.60;60.40;;;;;;5076455;28;20458;-73
2021/11/27 10:02:31;;;;;;;8.48;2.92;;;24.60;60.60;;;;;;5094826;28;20031;-73
2021/11/27 10:05:03;;;;;;;10.35;3.20;;;24.60;61.10;;;;;;5094979;28;20115;-74
2021/11/27 10:07:59;;;;;;;36.90;20.38;;;24.70;61.30;;;;;;5093140;28;20513;-74
2021/11/27 10:10:33;;;;;;;18.42;7.18;;;24.70;61.30;;;;;;5093127;28;20378;-75
2021/11/27 10:13:09;;;;;;;17.95;4.50;;;24.70;61.40;;;;;;5095297;28;20044;-74
2021/11/27 10:15:59;;;;;;;8.88;3.03;;;24.70;61.70;;;;;;5095523;28;20458;-76
2021/11/27 10:18:26;;;;;;;7.45;2.78;;;24.70;61.70;;;;;;5096552;28;20048;-81
2021/11/27 10:21:15;;;;;;;13.25;4.10;;;24.70;61.40;;;;;;5094261;28;20012;-79
2021/11/27 10:23:42;;;;;;;10.93;3.30;;;24.80;61.20;;;;;;5093680;28;20016;-82
2021/11/27 10:26:28;;;;;;;10.25;3.72;;;24.80;61.10;;;;;;5094972;28;20420;-80
2021/11/27 10:29:11;;;;;;;14.68;3.35;;;24.80;60.90;;;;;;5093126;28;20015;-81
2021/11/27 10:31:38;;;;;;;11.30;2.63;;;24.90;60.70;;;;;;5091182;28;20028;-82
2021/11/27 10:34:04;;;;;;;8.73;2.80;;;24.90;60.70;;;;;;5096350;28;20093;-81
2021/11/27 10:36:33;;;;;;;13.10;3.42;;;24.90;60.60;;;;;;5094423;28;20382;-80
2021/11/27 10:39:07;;;;;;;11.25;2.75;;;24.90;60.60;;;;;;5097647;28;20022;-82
2021/11/27 10:41:37;;;;;;;11.68;3.22;;;24.90;60.80;;;;;;5092038;28;20020;-81
2021/11/27 10:44:09;;;;;;;14.35;3.55;;;24.90;60.90;;;;;;5095546;28;20024;-82
2021/11/27 10:46:39;;;;;;;12.00;3.55;;;24.80;60.80;;;;;;5089878;28;20025;-83
2021/11/27 10:49:12;;;;;;;16.25;3.47;;;24.80;60.70;;;;;;5096690;28;20023;-83
2021/11/27 10:51:39;;;;;;;9.02;3.42;;;24.80;60.40;;;;;;5093467;28;20012;-82
2021/11/27 10:54:06;;;;;;;13.30;3.05;;;24.80;60.40;;;;;;5094658;28;20081;-84
2021/11/27 10:56:47;;;;;;;11.85;3.08;;;24.80;60.50;;;;;;5098483;28;20110;-82
2021/11/27 10:59:15;;;;;;;8.75;2.70;;;24.80;60.60;;;;;;5090450;28;20020;-81
2021/11/27 11:02:01;;;;;;;10.90;4.47;;;24.90;60.70;;;;;;5098606;28;20019;-81
2021/11/27 11:04:28;;;;;;;12.10;3.38;;;24.90;60.60;;;;;;5092378;28;20012;-80
2021/11/27 11:07:20;;;;;;;15.48;3.63;;;25.00;60.50;;;;;;5096832;28;20016;-81
2021/11/27 11:10:08;;;;;;;12.50;4.20;;;25.00;60.20;;;;;;5096751;28;20359;-82
2021/11/27 11:12:54;;;;;;;9.30;3.53;;;25.10;59.60;;;;;;5092356;28;20030;-81
2021/11/27 11:15:25;;;;;;;;;;;25.10;59.30;;;;;;5090507;28;20439;-81
2021/11/27 11:18:07;;;;;;;21.55;4.93;;;25.20;59.00;;;;;;5086930;28;19920;-81
2021/11/27 11:20:34;;;;;;;15.23;3.92;;;25.20;59.00;;;;;;5082874;28;20016;-81
2021/11/27 11:23:06;;;;;;;13.52;4.22;;;25.30;58.90;;;;;;5085752;28;20016;-79
2021/11/27 11:25:37;;;;;;;13.88;3.97;;;25.30;58.70;;;;;;5084930;28;20099;-82
2021/11/27 11:28:16;;;;;;;18.85;3.97;;;25.30;58.60;;;;;;5085823;28;20023;-76
2021/11/27 11:30:45;;;;;;;16.77;4.43;;;25.30;58.40;;;;;;5086025;28;20495;-80
2021/11/27 11:33:13;;;;;;;11.30;3.35;;;25.30;58.30;;;;;;5083211;28;20016;-81
2021/11/27 11:35:41;;;;;;;12.25;3.83;;;25.30;58.20;;;;;;5086948;28;20038;-84
2021/11/27 11:38:13;;;;;;;12.73;4.15;;;25.40;58.30;;;;;;5085337;28;20518;-82
2021/11/27 11:40:43;;;;;;;12.10;3.40;;;25.40;58.40;;;;;;5085367;28;20027;-81
2021/11/27 11:43:10;;;;;;;9.90;3.80;;;25.40;58.60;;;;;;5083832;28;20016;-81
2021/11/27 11:45:37;;;;;;;12.23;3.58;;;25.40;58.50;;;;;;5086651;28;20525;-84
2021/11/27 11:48:06;;;;;;;15.68;3.80;;;25.40;58.40;;;;;;5086064;28;20561;-80
2021/11/27 11:50:41;;;;;;;16.45;4.20;;;25.40;58.70;;;;;;5084755;28;20609;-82
2021/11/27 11:53:26;;;;;;;13.00;3.75;;;25.40;58.80;;;;;;5084640;28;20017;-83
2021/11/27 11:56:03;;;;;;;11.20;4.22;;;25.40;58.50;;;;;;5085199;28;20031;-82
2021/11/27 11:58:33;;;;;;;9.68;2.88;;;25.40;58.10;;;;;;5085416;28;20017;-82
2021/11/27 12:01:15;;;;;;;17.02;4.85;;;25.40;58.00;;;;;;5087586;28;20020;-81
2021/11/27 12:03:43;;;;;;;10.73;3.58;;;25.40;58.20;;;;;;5083009;28;20016;-81
2021/11/27 12:06:13;;;;;;;13.32;3.08;;;25.40;58.60;;;;;;5084603;28;20017;-80
2021/11/27 12:08:49;;;;;;;9.93;3.22;;;25.40;59.00;;;;;;5085214;28;20020;-81
2021/11/27 12:11:37;;;;;;;17.20;4.53;;;25.40;59.40;;;;;;5083714;28;20086;-82
2021/11/27 12:14:04;;;;;;;12.55;3.97;;;25.30;59.70;;;;;;5085729;28;20086;-82
2021/11/27 12:16:30;;;;;;;9.20;3.15;;;25.20;60.00;;;;;;5085347;28;20111;-83
2021/11/27 12:19:09;;;;;;;12.50;3.97;;;25.20;60.40;;;;;;5086438;28;20032;-83
2021/11/27 12:21:35;;;;;;;11.65;3.72;;;25.20;60.80;;;;;;5085674;28;20020;-80
2021/11/27 12:24:02;;;;;;;20.20;4.85;;;25.10;61.10;;;;;;5086145;28;20071;-83
2021/11/27 12:26:28;;;;;;;17.67;4.55;;;25.10;61.30;;;;;;5088110;28;20055;-83
2021/11/27 12:28:56;;;;;;;15.27;4.55;;;25.10;61.70;;;;;;5089694;28;20024;-83
2021/11/27 12:31:25;;;;;;;14.43;4.57;;;25.10;62.20;;;;;;5091189;28;20548;-84
2021/11/27 12:34:00;;;;;;;14.60;4.93;;;25.20;62.40;;;;;;5089692;28;20178;-82
2021/11/27 12:36:30;;;;;;;16.08;4.72;;;25.10;60.80;;;;;;5089487;28;20895;-83
2021/11/27 12:39:16;;;;;;;16.85;4.80;;;25.20;60.30;;;;;;5090200;28;20115;-84
2021/11/27 12:41:52;;;;;;;18.48;4.35;;;25.10;60.20;;;;;;5091263;28;20073;-82
2021/11/27 12:44:45;;;;;;;12.05;4.40;;;25.20;60.70;;;;;;5089426;28;20021;-81
2021/11/27 12:47:22;;;;;;;15.98;4.30;;;25.20;61.50;;;;;;5097119;28;20077;-74
2021/11/27 12:49:54;;;;;;;19.38;6.47;;;25.20;62.40;;;;;;5099659;28;20466;-75
2021/11/27 12:52:42;;;;;;;20.33;4.50;;;25.20;63.00;;;;;;5083431;28;20028;-75